Time;durP1;ratioP1;P1;durP2;ratioP2;P2;SDS_P1;SDS_P2;PMS_P1;PMS_P2;Temp;Humidity;BMP_temperature;BMP_pressure;BME280_temperature;BME280_humidity;BME280_pressure;Samples;Min_cycle;Max_cycle;Signal;HPM_P1;HPM_P2
2023/05/14 00:01:57;;;;;;;0.10;0.10;;;;;;;;;;4956912;28;20050;-75
2023/05/14 00:04:43;;;;;;;0.10;0.10;;;;;;;;;;4956293;28;20049;-75
2023/05/14 00:07:29;;;;;;;0.10;0.10;;;;;;;;;;4958435;28;20125;-75
2023/05/14 00:10:16;;;;;;;0.10;0.10;;;;;;;;;;4958652;28;20465;-74
2023/05/14 00:13:02;;;;;;;0.10;0.10;;;;;;;;;;4958030;28;20028;-76
2023/05/14 00:15:47;;;;;;;0.10;0.10;;;;;;;;;;4957034;28;20065;-74
2023/05/14 00:18:33;;;;;;;0.10;0.10;;;;;;;;;;4957325;28;20066;-76
2023/05/14 00:21:21;;;;;;;0.10;0.10;;;;;;;;;;4956545;28;20058;-75
2023/05/14 00:24:07;;;;;;;0.10;0.10;;;;;;;;;;4957208;28;20114;-75
2023/05/14 00:26:53;;;;;;;0.10;0.10;;;;;;;;;;4944252;28;20049;-75
2023/05/14 00:29:38;;;;;;;0.20;0.20;;;;;;;;;;4961585;28;20050;-76
2023/05/14 00:32:24;;;;;;;0.10;0.10;;;;;;;;;;4962182;28;20057;-75
2023/05/14 00:35:10;;;;;;;0.10;0.10;;;;;;;;;;4962345;28;20137;-75
2023/05/14 00:37:56;;;;;;;0.10;0.10;;;;;;;;;;4963469;28;20038;-75
2023/05/14 00:40:44;;;;;;;0.15;0.15;;;;;;;;;;4962994;28;20491;-75
2023/05/14 00:43:32;;;;;;;0.10;0.10;;;;;;;;;;4963058;28;20337;-76
2023/05/14 00:46:17;;;;;;;0.10;0.10;;;;;;;;;;4965143;28;20050;-75
2023/05/14 00:49:03;;;;;;;0.10;0.10;;;;;;;;;;4947929;28;20335;-76
2023/05/14 00:51:49;;;;;;;0.10;0.10;;;;;;;;;;4961100;28;20043;-75
2023/05/14 00:54:35;;;;;;;0.10;0.10;;;;;;;;;;4945381;28;20403;-75
2023/05/14 00:57:21;;;;;;;0.10;0.10;;;;;;;;;;4964218;28;20139;-75
2023/05/14 01:00:07;;;;;;;0.20;0.20;;;;;;;;;;4964791;28;20062;-76
2023/05/14 01:02:53;;;;;;;0.10;0.10;;;;;;;;;;4960022;28;21058;-76
2023/05/14 01:05:59;;;;;;;0.20;0.20;;;;;;;;;;4962271;28;20050;-74
2023/05/14 01:08:49;;;;;;;0.10;0.10;;;;;;;;;;4960807;28;20042;-76
2023/05/14 01:11:54;;;;;;;0.10;0.10;;;;;;;;;;4963681;28;20751;-75
2023/05/14 01:14:49;;;;;;;0.20;0.20;;;;;;;;;;4962850;28;20103;-76
2023/05/14 01:17:38;;;;;;;0.10;0.10;;;;;;;;;;4960063;28;20035;-75
2023/05/14 01:20:24;;;;;;;0.10;0.10;;;;;;;;;;4962125;28;20049;-75
2023/05/14 01:23:10;;;;;;;0.10;0.10;;;;;;;;;;4962610;28;20453;-75
2023/05/14 01:25:56;;;;;;;0.10;0.10;;;;;;;;;;4962324;28;20059;-75
2023/05/14 01:28:42;;;;;;;0.10;0.10;;;;;;;;;;4949438;28;20047;-76
2023/05/14 01:31:31;;;;;;;0.10;0.10;;;;;;;;;;4927279;28;20054;-75
2023/05/14 01:34:19;;;;;;;0.17;0.17;;;;;;;;;;4941053;28;20039;-75
2023/05/14 01:37:06;;;;;;;0.10;0.10;;;;;;;;;;4942068;28;20695;-75
2023/05/14 01:39:52;;;;;;;0.10;0.10;;;;;;;;;;4926740;28;20031;-76
2023/05/14 01:42:38;;;;;;;0.10;0.10;;;;;;;;;;4938930;28;20089;-76
2023/05/14 01:45:24;;;;;;;0.13;0.13;;;;;;;;;;4940202;28;20420;-75
2023/05/14 01:48:09;;;;;;;0.10;0.10;;;;;;;;;;4923538;28;20404;-75
2023/05/14 01:50:55;;;;;;;0.10;0.10;;;;;;;;;;4939095;28;20105;-77
2023/05/14 01:53:41;;;;;;;0.10;0.10;;;;;;;;;;4939318;28;20548;-76
2023/05/14 01:56:27;;;;;;;0.10;0.10;;;;;;;;;;4940546;28;20217;-76
2023/05/14 01:59:13;;;;;;;0.10;0.10;;;;;;;;;;4938441;28;20487;-75
2023/05/14 02:01:59;;;;;;;0.10;0.10;;;;;;;;;;4921818;28;20044;-75
2023/05/14 02:04:45;;;;;;;0.10;0.10;;;;;;;;;;4925175;28;20047;-75
2023/05/14 02:07:31;;;;;;;0.10;0.10;;;;;;;;;;4924932;28;20066;-77
2023/05/14 02:10:16;;;;;;;0.10;0.10;;;;;;;;;;4922609;28;20456;-75
2023/05/14 02:13:08;;;;;;;0.10;0.10;;;;;;;;;;4923950;28;20491;-75
2023/05/14 02:15:54;;;;;;;0.10;0.10;;;;;;;;;;4939403;28;20038;-74
2023/05/14 02:18:39;;;;;;;0.10;0.10;;;;;;;;;;4923828;28;20118;-75
2023/05/14 02:21:25;;;;;;;0.10;0.10;;;;;;;;;;4937589;28;20483;-74
2023/05/14 02:24:11;;;;;;;0.20;0.20;;;;;;;;;;4939091;28;20458;-75
2023/05/14 02:26:59;;;;;;;0.20;0.20;;;;;;;;;;4939289;28;20490;-75
2023/05/14 02:29:45;;;;;;;0.10;0.10;;;;;;;;;;4956636;28;20055;-75
2023/05/14 02:32:31;;;;;;;0.10;0.10;;;;;;;;;;4957101;28;20038;-76
2023/05/14 02:35:17;;;;;;;0.10;0.10;;;;;;;;;;4960131;28;20594;-75
2023/05/14 02:38:02;;;;;;;0.10;0.10;;;;;;;;;;4959475;28;20031;-76
2023/05/14 02:40:48;;;;;;;0.10;0.10;;;;;;;;;;4959233;28;20050;-74
2023/05/14 02:43:34;;;;;;;0.15;0.13;;;;;;;;;;4958065;28;20495;-75
2023/05/14 02:46:19;;;;;;;0.10;0.10;;;;;;;;;;4957374;28;20043;-75
2023/05/14 02:49:05;;;;;;;0.10;0.10;;;;;;;;;;4958605;28;20117;-75
2023/05/14 02:51:53;;;;;;;0.10;0.10;;;;;;;;;;4958545;28;20072;-77
2023/05/14 02:54:38;;;;;;;0.20;0.20;;;;;;;;;;4957171;28;20193;-76
2023/05/14 02:57:24;;;;;;;0.10;0.10;;;;;;;;;;4959211;28;20047;-76
2023/05/14 03:00:10;;;;;;;0.10;0.10;;;;;;;;;;4959461;28;20041;-77
2023/05/14 03:02:56;;;;;;;0.10;0.10;;;;;;;;;;4940722;28;20396;-76
2023/05/14 03:05:41;;;;;;;0.10;0.10;;;;;;;;;;4956893;28;20047;-76
2023/05/14 03:08:27;;;;;;;0.10;0.10;;;;;;;;;;4957355;28;20537;-76
2023/05/14 03:11:13;;;;;;;0.20;0.20;;;;;;;;;;4957473;28;20058;-75
2023/05/14 03:13:59;;;;;;;0.10;0.10;;;;;;;;;;4940177;28;20514;-75
2023/05/14 03:16:44;;;;;;;0.10;0.10;;;;;;;;;;4959927;28;20387;-76
2023/05/14 03:19:31;;;;;;;0.10;0.10;;;;;;;;;;4941074;28;20039;-77
2023/05/14 03:22:16;;;;;;;0.10;0.10;;;;;;;;;;4958320;28;20150;-77
2023/05/14 03:25:02;;;;;;;0.10;0.10;;;;;;;;;;4956223;28;20475;-76
2023/05/14 03:27:48;;;;;;;0.10;0.10;;;;;;;;;;4955781;28;20462;-75
2023/05/14 03:30:34;;;;;;;0.10;0.10;;;;;;;;;;4941820;28;20043;-76
2023/05/14 03:33:20;;;;;;;0.10;0.10;;;;;;;;;;4942292;28;20034;-76
2023/05/14 03:36:06;;;;;;;0.13;0.13;;;;;;;;;;4957116;28;20038;-75
2023/05/14 03:38:51;;;;;;;0.10;0.10;;;;;;;;;;4942578;28;20973;-77
2023/05/14 03:41:38;;;;;;;0.10;0.10;;;;;;;;;;4956048;28;20030;-76
2023/05/14 03:44:24;;;;;;;0.10;0.10;;;;;;;;;;4958159;28;20530;-75
2023/05/14 03:47:10;;;;;;;0.10;0.10;;;;;;;;;;4956340;28;20045;-76
2023/05/14 03:49:56;;;;;;;0.10;0.10;;;;;;;;;;4956001;28;20134;-76
2023/05/14 03:52:45;;;;;;;0.10;0.10;;;;;;;;;;4956188;28;20042;-76
2023/05/14 03:55:31;;;;;;;0.10;0.10;;;;;;;;;;4955271;28;20041;-77
2023/05/14 03:58:16;;;;;;;0.10;0.10;;;;;;;;;;4940747;28;20029;-76
2023/05/14 04:01:02;;;;;;;0.10;0.10;;;;;;;;;;4942208;28;20522;-76
2023/05/14 04:03:48;;;;;;;0.10;0.10;;;;;;;;;;4957699;28;20094;-75
2023/05/14 04:06:33;;;;;;;0.10;0.10;;;;;;;;;;4957416;28;20124;-75
2023/05/14 04:09:20;;;;;;;0.10;0.10;;;;;;;;;;4959102;28;20039;-76
2023/05/14 04:12:06;;;;;;;0.10;0.10;;;;;;;;;;4957560;28;20097;-75
2023/05/14 04:14:52;;;;;;;0.10;0.10;;;;;;;;;;4954472;28;20117;-76
2023/05/14 04:17:38;;;;;;;0.10;0.10;;;;;;;;;;4960572;28;20062;-76
2023/05/14 04:20:24;;;;;;;0.13;0.13;;;;;;;;;;4959324;28;20037;-75
2023/05/14 04:23:10;;;;;;;0.10;0.10;;;;;;;;;;4958748;28;20560;-75
2023/05/14 04:25:55;;;;;;;0.10;0.10;;;;;;;;;;4956155;28;20043;-76
2023/05/14 04:28:41;;;;;;;0.10;0.10;;;;;;;;;;4956935;28;20051;-76
2023/05/14 04:31:27;;;;;;;0.10;0.10;;;;;;;;;;4959993;28;20779;-76
2023/05/14 04:34:13;;;;;;;0.10;0.10;;;;;;;;;;4958929;28;20031;-76
2023/05/14 04:36:58;;;;;;;0.15;0.15;;;;;;;;;;4959446;28;20078;-76
2023/05/14 04:39:44;;;;;;;0.20;0.20;;;;;;;;;;4956704;28;20039;-75
2023/05/14 04:42:31;;;;;;;0.20;0.20;;;;;;;;;;4960214;28;20058;-76
2023/05/14 04:45:16;;;;;;;0.10;0.10;;;;;;;;;;4944010;28;20149;-76
2023/05/14 04:48:03;;;;;;;0.10;0.10;;;;;;;;;;4957492;28;20045;-76
2023/05/14 04:50:48;;;;;;;0.10;0.10;;;;;;;;;;4957500;28;20268;-75
2023/05/14 04:53:34;;;;;;;0.10;0.10;;;;;;;;;;4929912;28;20037;-76
2023/05/14 04:56:20;;;;;;;0.10;0.10;;;;;;;;;;4958795;28;20503;-76
2023/05/14 04:59:05;;;;;;;0.10;0.10;;;;;;;;;;4957162;28;20037;-76
2023/05/14 05:01:51;;;;;;;0.10;0.10;;;;;;;;;;4957359;28;20149;-76
2023/05/14 05:04:37;;;;;;;0.10;0.10;;;;;;;;;;4956651;28;20053;-76
2023/05/14 05:07:23;;;;;;;0.10;0.10;;;;;;;;;;4957981;28;20038;-76
2023/05/14 05:10:09;;;;;;;0.10;0.10;;;;;;;;;;4957717;28;20074;-76
2023/05/14 05:12:54;;;;;;;0.10;0.10;;;;;;;;;;4957077;28;20678;-75
2023/05/14 05:15:40;;;;;;;0.20;0.20;;;;;;;;;;4960141;28;20586;-75
2023/05/14 05:18:26;;;;;;;0.20;0.20;;;;;;;;;;4962190;28;20558;-76
2023/05/14 05:21:12;;;;;;;0.20;0.20;;;;;;;;;;4961925;28;20046;-75
2023/05/14 05:23:57;;;;;;;0.10;0.10;;;;;;;;;;4961452;28;20049;-76
2023/05/14 05:26:43;;;;;;;0.20;0.20;;;;;;;;;;4960516;28;20058;-75
2023/05/14 05:29:29;;;;;;;0.10;0.10;;;;;;;;;;4960148;28;20050;-75
2023/05/14 05:32:14;;;;;;;0.10;0.10;;;;;;;;;;4944775;28;20104;-75
2023/05/14 05:35:00;;;;;;;0.20;0.20;;;;;;;;;;4960648;28;20039;-75
2023/05/14 05:37:46;;;;;;;0.10;0.10;;;;;;;;;;4961086;28;20541;-75
2023/05/14 05:40:32;;;;;;;0.10;0.10;;;;;;;;;;4946652;28;20372;-76
2023/05/14 05:43:18;;;;;;;0.20;0.20;;;;;;;;;;4961046;28;20511;-75
2023/05/14 05:46:04;;;;;;;0.10;0.10;;;;;;;;;;4944809;28;20046;-76
2023/05/14 05:48:49;;;;;;;0.10;0.10;;;;;;;;;;4959203;28;20057;-75
2023/05/14 05:51:35;;;;;;;0.13;0.13;;;;;;;;;;4961032;28;20038;-75
2023/05/14 05:54:22;;;;;;;0.10;0.10;;;;;;;;;;4960557;28;20113;-76
2023/05/14 05:57:08;;;;;;;0.10;0.10;;;;;;;;;;4960238;28;20037;-76
2023/05/14 05:59:55;;;;;;;0.10;0.10;;;;;;;;;;4960790;28;20371;-76
2023/05/14 06:02:41;;;;;;;0.20;0.20;;;;;;;;;;4945130;28;20110;-76
2023/05/14 06:05:27;;;;;;;0.10;0.10;;;;;;;;;;4959499;28;20085;-77
2023/05/14 06:08:12;;;;;;;0.10;0.10;;;;;;;;;;4959089;28;20039;-76
2023/05/14 06:10:58;;;;;;;0.20;0.20;;;;;;;;;;4959212;28;20419;-76
2023/05/14 06:13:44;;;;;;;0.10;0.10;;;;;;;;;;4957510;28;20054;-77
2023/05/14 06:16:30;;;;;;;0.20;0.20;;;;;;;;;;4960240;28;20376;-77
2023/05/14 06:19:16;;;;;;;0.15;0.15;;;;;;;;;;4959617;28;20142;-77
2023/05/14 06:22:02;;;;;;;0.10;0.10;;;;;;;;;;4958771;28;20031;-77
2023/05/14 06:24:47;;;;;;;0.10;0.10;;;;;;;;;;4942990;28;20740;-77
2023/05/14 06:27:33;;;;;;;0.10;0.10;;;;;;;;;;4955559;28;20523;-77
2023/05/14 06:30:19;;;;;;;0.10;0.10;;;;;;;;;;4957198;28;20041;-77
2023/05/14 06:33:05;;;;;;;0.10;0.10;;;;;;;;;;4958684;28;20040;-77
2023/05/14 06:35:51;;;;;;;0.10;0.10;;;;;;;;;;4960027;28;20585;-77
2023/05/14 06:38:36;;;;;;;0.10;0.10;;;;;;;;;;4958269;28;20126;-77
2023/05/14 06:41:22;;;;;;;0.10;0.10;;;;;;;;;;4959655;28;20039;-77
2023/05/14 06:44:08;;;;;;;0.10;0.10;;;;;;;;;;4960484;28;20039;-77
2023/05/14 06:46:54;;;;;;;0.10;0.10;;;;;;;;;;4957218;28;20042;-77
2023/05/14 06:49:40;;;;;;;0.10;0.10;;;;;;;;;;4957359;28;20051;-77
2023/05/14 06:52:25;;;;;;;0.10;0.10;;;;;;;;;;4958396;28;20042;-77
2023/05/14 06:55:11;;;;;;;0.10;0.10;;;;;;;;;;4956141;28;20543;-77
2023/05/14 06:57:57;;;;;;;0.10;0.10;;;;;;;;;;4943945;28;20037;-77
2023/05/14 07:00:42;;;;;;;0.10;0.10;;;;;;;;;;4956935;28;20062;-77
2023/05/14 07:03:28;;;;;;;0.10;0.10;;;;;;;;;;4957643;28;20066;-76
2023/05/14 07:06:14;;;;;;;0.10;0.10;;;;;;;;;;4956733;28;20659;-77
2023/05/14 07:09:00;;;;;;;0.10;0.10;;;;;;;;;;4957878;28;20037;-77
2023/05/14 07:11:46;;;;;;;0.10;0.10;;;;;;;;;;4957420;28;20027;-77
2023/05/14 07:14:31;;;;;;;0.15;0.10;;;;;;;;;;4956295;28;20480;-77
2023/05/14 07:17:17;;;;;;;0.10;0.10;;;;;;;;;;4959156;28;20202;-76
2023/05/14 07:20:03;;;;;;;0.10;0.10;;;;;;;;;;4957897;28;20034;-77
2023/05/14 07:22:49;;;;;;;0.10;0.10;;;;;;;;;;4955774;28;20039;-77
2023/05/14 07:25:34;;;;;;;0.10;0.10;;;;;;;;;;4956489;28;20352;-77
2023/05/14 07:28:20;;;;;;;0.20;0.20;;;;;;;;;;4957232;28;20082;-77
2023/05/14 07:31:07;;;;;;;0.10;0.10;;;;;;;;;;4957349;28;20054;-77
2023/05/14 07:33:53;;;;;;;0.10;0.10;;;;;;;;;;4956987;28;20377;-77
2023/05/14 07:36:40;;;;;;;0.10;0.10;;;;;;;;;;4957229;28;20138;-76
2023/05/14 07:39:25;;;;;;;0.17;0.17;;;;;;;;;;4943639;28;20574;-76
2023/05/14 07:42:11;;;;;;;0.20;0.20;;;;;;;;;;4958695;28;20039;-76
2023/05/14 07:44:57;;;;;;;0.20;0.20;;;;;;;;;;4956719;28;20065;-77
2023/05/14 07:47:43;;;;;;;0.15;0.15;;;;;;;;;;4956710;28;20031;-76
2023/05/14 07:50:29;;;;;;;0.20;0.20;;;;;;;;;;4958755;28;20041;-77
2023/05/14 07:53:14;;;;;;;0.20;0.20;;;;;;;;;;4956513;28;20041;-76
2023/05/14 07:56:00;;;;;;;0.10;0.10;;;;;;;;;;4943435;28;20038;-76
2023/05/14 07:58:46;;;;;;;0.10;0.10;;;;;;;;;;4953789;28;20041;-76
2023/05/14 08:01:32;;;;;;;0.15;0.15;;;;;;;;;;4957355;28;20034;-77
2023/05/14 08:04:17;;;;;;;0.10;0.10;;;;;;;;;;4940639;28;20041;-77
2023/05/14 08:07:03;;;;;;;0.10;0.10;;;;;;;;;;4958073;28;20041;-77
2023/05/14 08:09:49;;;;;;;0.20;0.20;;;;;;;;;;4955905;28;20038;-77
2023/05/14 08:12:35;;;;;;;0.10;0.10;;;;;;;;;;4957565;28;20269;-77
2023/05/14 08:15:20;;;;;;;0.10;0.10;;;;;;;;;;4957220;28;20479;-77
2023/05/14 08:18:06;;;;;;;0.10;0.10;;;;;;;;;;4956719;28;20027;-77
2023/05/14 08:20:52;;;;;;;0.13;0.13;;;;;;;;;;4957253;28;20043;-77
2023/05/14 08:23:38;;;;;;;0.20;0.20;;;;;;;;;;4931366;28;20916;-78
2023/05/14 08:26:23;;;;;;;0.10;0.10;;;;;;;;;;4958940;28;20039;-77
2023/05/14 08:29:09;;;;;;;0.15;0.15;;;;;;;;;;4943023;28;20078;-77
2023/05/14 08:31:55;;;;;;;0.10;0.10;;;;;;;;;;4938578;28;20074;-77
2023/05/14 08:34:41;;;;;;;0.10;0.10;;;;;;;;;;4921145;28;20494;-77
2023/05/14 08:37:27;;;;;;;0.10;0.10;;;;;;;;;;4938936;28;20058;-77
2023/05/14 08:40:13;;;;;;;0.10;0.10;;;;;;;;;;4937623;28;20066;-77
2023/05/14 08:42:59;;;;;;;0.13;0.13;;;;;;;;;;4892061;28;20039;-77
2023/05/14 08:45:45;;;;;;;0.15;0.15;;;;;;;;;;4937128;28;20043;-77
2023/05/14 08:48:32;;;;;;;0.20;0.20;;;;;;;;;;4937898;28;20040;-77
2023/05/14 08:51:18;;;;;;;0.10;0.10;;;;;;;;;;4941961;28;20093;-77
2023/05/14 08:54:04;;;;;;;0.20;0.20;;;;;;;;;;4941142;28;20442;-77
2023/05/14 08:56:50;;;;;;;0.20;0.20;;;;;;;;;;4938845;28;20043;-77
2023/05/14 08:59:36;;;;;;;0.20;0.20;;;;;;;;;;4940992;28;20043;-77
2023/05/14 09:02:23;;;;;;;0.20;0.20;;;;;;;;;;4942070;28;20058;-77
2023/05/14 09:05:09;;;;;;;0.10;0.10;;;;;;;;;;4940624;28;20086;-77
2023/05/14 09:07:55;;;;;;;0.13;0.13;;;;;;;;;;4940915;28;20276;-79
2023/05/14 09:10:44;;;;;;;0.20;0.20;;;;;;;;;;4941809;28;20119;-77
2023/05/14 09:13:30;;;;;;;0.20;0.20;;;;;;;;;;4941333;28;20031;-77
2023/05/14 09:16:17;;;;;;;0.20;0.20;;;;;;;;;;4942989;28;20039;-77
2023/05/14 09:19:03;;;;;;;0.10;0.10;;;;;;;;;;4940476;28;20504;-77
2023/05/14 09:21:49;;;;;;;0.10;0.10;;;;;;;;;;4913417;28;20185;-77
2023/05/14 09:24:35;;;;;;;0.10;0.10;;;;;;;;;;4924477;28;20036;-77
2023/05/14 09:27:20;;;;;;;0.20;0.20;;;;;;;;;;4941282;28;20043;-77
2023/05/14 09:30:10;;;;;;;0.17;0.17;;;;;;;;;;4940073;28;20364;-77
2023/05/14 09:32:56;;;;;;;0.10;0.10;;;;;;;;;;4941402;28;20035;-77
2023/05/14 09:35:42;;;;;;;0.20;0.20;;;;;;;;;;4942671;28;20043;-77
2023/05/14 09:38:31;;;;;;;0.10;0.10;;;;;;;;;;4942183;28;20126;-78
2023/05/14 09:41:16;;;;;;;0.20;0.20;;;;;;;;;;4941041;28;20075;-77
2023/05/14 09:44:02;;;;;;;0.20;0.20;;;;;;;;;;4941817;28;20061;-78
2023/05/14 09:46:49;;;;;;;0.20;0.20;;;;;;;;;;4940701;28;20129;-77
2023/05/14 09:49:35;;;;;;;0.20;0.20;;;;;;;;;;4939049;28;20028;-77
2023/05/14 09:52:23;;;;;;;0.10;0.10;;;;;;;;;;4940385;28;20047;-77
2023/05/14 09:55:09;;;;;;;0.20;0.20;;;;;;;;;;4941719;28;20387;-77
2023/05/14 09:57:55;;;;;;;0.10;0.10;;;;;;;;;;4952524;28;20035;-77
2023/05/14 10:00:44;;;;;;;0.20;0.20;;;;;;;;;;4937648;28;20066;-77
2023/05/14 10:03:31;;;;;;;0.10;0.10;;;;;;;;;;4939720;28;20046;-78
2023/05/14 10:06:18;;;;;;;0.20;0.20;;;;;;;;;;4940265;28;20074;-78
2023/05/14 10:09:04;;;;;;;0.10;0.10;;;;;;;;;;4941788;28;20042;-77
2023/05/14 10:11:52;;;;;;;0.20;0.20;;;;;;;;;;4941003;28;20551;-77
2023/05/14 10:14:39;;;;;;;0.20;0.20;;;;;;;;;;4949523;28;20036;-77
2023/05/14 10:17:28;;;;;;;0.10;0.10;;;;;;;;;;4941692;28;20030;-77
2023/05/14 10:20:14;;;;;;;0.20;0.20;;;;;;;;;;4941295;28;20043;-77
2023/05/14 10:23:00;;;;;;;0.20;0.20;;;;;;;;;;4940479;28;20048;-78
2023/05/14 10:25:46;;;;;;;0.10;0.10;;;;;;;;;;4953291;28;20055;-77
2023/05/14 10:28:32;;;;;;;0.20;0.20;;;;;;;;;;4947419;28;20042;-78
2023/05/14 10:31:21;;;;;;;0.20;0.20;;;;;;;;;;4959380;28;20050;-78
2023/05/14 10:34:27;;;;;;;0.20;0.20;;;;;;;;;;4944920;28;20031;-77
2023/05/14 10:37:14;;;;;;;0.20;0.20;;;;;;;;;;4960998;28;20877;-78
2023/05/14 10:40:07;;;;;;;0.20;0.20;;;;;;;;;;4959165;28;20035;-77
2023/05/14 10:42:53;;;;;;;0.20;0.20;;;;;;;;;;4943960;28;20030;-77
2023/05/14 10:45:40;;;;;;;0.20;0.20;;;;;;;;;;4959972;28;20141;-78
2023/05/14 10:48:26;;;;;;;0.10;0.10;;;;;;;;;;4952899;28;20752;-77
2023/05/14 10:51:15;;;;;;;0.20;0.20;;;;;;;;;;4940115;28;20440;-78
2023/05/14 10:54:01;;;;;;;0.20;0.20;;;;;;;;;;4944439;28;20030;-78
2023/05/14 10:56:47;;;;;;;0.20;0.20;;;;;;;;;;4943225;28;20090;-77
2023/05/14 10:59:34;;;;;;;0.20;0.20;;;;;;;;;;4957358;28;20034;-78
2023/05/14 11:02:28;;;;;;;0.20;0.20;;;;;;;;;;4960400;28;20074;-78
2023/05/14 11:05:15;;;;;;;0.20;0.20;;;;;;;;;;4943683;28;20047;-78
2023/05/14 11:08:03;;;;;;;0.30;0.30;;;;;;;;;;4956390;28;20035;-78
2023/05/14 11:10:49;;;;;;;0.20;0.20;;;;;;;;;;4945072;28;20035;-78
2023/05/14 11:13:34;;;;;;;0.20;0.20;;;;;;;;;;4957095;28;20034;-78
2023/05/14 11:16:22;;;;;;;0.20;0.20;;;;;;;;;;4958088;28;20064;-78
2023/05/14 11:19:07;;;;;;;0.20;0.20;;;;;;;;;;4958406;28;20380;-78
2023/05/14 11:21:55;;;;;;;0.17;0.17;;;;;;;;;;4945052;28;20040;-78
2023/05/14 11:24:41;;;;;;;0.10;0.10;;;;;;;;;;4958552;28;20030;-78
2023/05/14 11:27:27;;;;;;;0.13;0.13;;;;;;;;;;4960140;28;20133;-78
2023/05/14 11:30:17;;;;;;;0.20;0.20;;;;;;;;;;4940869;28;20090;-78
2023/05/14 11:33:02;;;;;;;0.20;0.20;;;;;;;;;;4938253;28;20408;-78
2023/05/14 11:35:48;;;;;;;0.15;0.15;;;;;;;;;;4923546;28;20051;-78
2023/05/14 11:38:44;;;;;;;0.20;0.20;;;;;;;;;;4937070;28;20550;-78
2023/05/14 11:41:30;;;;;;;0.10;0.10;;;;;;;;;;4923762;28;20063;-78
2023/05/14 11:44:16;;;;;;;0.10;0.10;;;;;;;;;;4939387;28;20035;-78
2023/05/14 11:47:03;;;;;;;0.20;0.20;;;;;;;;;;4940079;28;20043;-78
2023/05/14 11:49:49;;;;;;;0.10;0.10;;;;;;;;;;4910659;28;20408;-78
2023/05/14 11:52:39;;;;;;;0.30;0.30;;;;;;;;;;4938445;28;20516;-78
2023/05/14 11:55:24;;;;;;;0.20;0.20;;;;;;;;;;4938311;28;20522;-78
2023/05/14 11:58:11;;;;;;;0.20;0.20;;;;;;;;;;4923548;28;20042;-78
2023/05/14 12:00:57;;;;;;;0.10;0.10;;;;;;;;;;4938776;28;20501;-78
2023/05/14 12:03:43;;;;;;;0.10;0.10;;;;;;;;;;4936345;28;20055;-78
2023/05/14 12:06:32;;;;;;;0.10;0.10;;;;;;;;;;4937320;28;20051;-78
2023/05/14 12:09:18;;;;;;;0.20;0.20;;;;;;;;;;4939117;28;20039;-78
2023/05/14 12:12:09;;;;;;;0.10;0.10;;;;;;;;;;4922474;28;20023;-78
2023/05/14 12:14:58;;;;;;;0.10;0.10;;;;;;;;;;4936959;28;20328;-77
2023/05/14 12:17:50;;;;;;;0.20;0.20;;;;;;;;;;4939465;28;20035;-78
2023/05/14 12:20:37;;;;;;;0.10;0.10;;;;;;;;;;4937623;28;20085;-78
2023/05/14 12:23:26;;;;;;;0.10;0.10;;;;;;;;;;4936713;28;20260;-78
2023/05/14 12:26:12;;;;;;;0.10;0.10;;;;;;;;;;4937804;28;21005;-78
2023/05/14 12:29:02;;;;;;;0.20;0.20;;;;;;;;;;4938028;28;20054;-78
2023/05/14 12:31:48;;;;;;;0.20;0.20;;;;;;;;;;4936672;28;20051;-77
2023/05/14 12:34:34;;;;;;;0.10;0.10;;;;;;;;;;4938594;28;20121;-78
2023/05/14 12:37:20;;;;;;;0.20;0.20;;;;;;;;;;4924520;28;20039;-78
2023/05/14 12:40:10;;;;;;;0.20;0.20;;;;;;;;;;4939478;28;20323;-78
2023/05/14 12:42:56;;;;;;;0.10;0.10;;;;;;;;;;4940528;28;20122;-78
2023/05/14 12:45:41;;;;;;;0.10;0.10;;;;;;;;;;4938988;28;20043;-78
2023/05/14 12:48:27;;;;;;;0.10;0.10;;;;;;;;;;4937965;28;20031;-78
2023/05/14 12:51:13;;;;;;;0.10;0.10;;;;;;;;;;4925705;28;20027;-78
2023/05/14 12:53:58;;;;;;;0.20;0.20;;;;;;;;;;4923349;28;20333;-77
2023/05/14 12:56:44;;;;;;;0.10;0.10;;;;;;;;;;4938524;28;20050;-77
2023/05/14 12:59:32;;;;;;;0.10;0.10;;;;;;;;;;4937032;28;20040;-78
2023/05/14 13:02:20;;;;;;;0.13;0.13;;;;;;;;;;4937650;28;20286;-78
2023/05/14 13:05:06;;;;;;;0.17;0.17;;;;;;;;;;4922563;28;20665;-78
2023/05/14 13:07:52;;;;;;;0.10;0.10;;;;;;;;;;4936173;28;20055;-78
2023/05/14 13:10:38;;;;;;;0.20;0.20;;;;;;;;;;4937155;28;20109;-78
2023/05/14 13:13:23;;;;;;;0.10;0.10;;;;;;;;;;4938782;28;20039;-77
2023/05/14 13:16:09;;;;;;;0.10;0.10;;;;;;;;;;4938383;28;20066;-77
2023/05/14 13:18:55;;;;;;;0.10;0.10;;;;;;;;;;4937135;28;20516;-77
2023/05/14 13:21:41;;;;;;;0.10;0.10;;;;;;;;;;4938484;28;20110;-78
2023/05/14 13:24:26;;;;;;;0.10;0.10;;;;;;;;;;4939030;28;20035;-77
2023/05/14 13:27:12;;;;;;;0.20;0.20;;;;;;;;;;4939487;28;20074;-77
2023/05/14 13:29:58;;;;;;;0.10;0.10;;;;;;;;;;4939301;28;20054;-77
2023/05/14 13:32:43;;;;;;;0.20;0.20;;;;;;;;;;4936029;28;20039;-78
2023/05/14 13:35:29;;;;;;;0.20;0.20;;;;;;;;;;4940667;28;20498;-79
2023/05/14 13:38:15;;;;;;;0.20;0.20;;;;;;;;;;4942620;28;20125;-78
2023/05/14 13:41:01;;;;;;;0.10;0.10;;;;;;;;;;4941561;28;20046;-78
2023/05/14 13:43:47;;;;;;;0.05;0.05;;;;;;;;;;4941851;28;20039;-78
2023/05/14 13:46:32;;;;;;;0.10;0.10;;;;;;;;;;4939217;28;20035;-78
2023/05/14 13:49:20;;;;;;;0.10;0.10;;;;;;;;;;4941226;28;20055;-78
2023/05/14 13:52:06;;;;;;;0.00;0.00;;;;;;;;;;4941787;28;20031;-78
2023/05/14 13:54:52;;;;;;;0.00;0.00;;;;;;;;;;4943160;28;20027;-79
2023/05/14 13:57:38;;;;;;;0.10;0.10;;;;;;;;;;4940225;28;20090;-78
2023/05/14 14:00:25;;;;;;;0.05;0.05;;;;;;;;;;4938515;28;20039;-79
2023/05/14 14:03:11;;;;;;;0.00;0.00;;;;;;;;;;4941469;28;20444;-79
2023/05/14 14:05:57;;;;;;;0.10;0.10;;;;;;;;;;4926472;28;20046;-79
2023/05/14 14:08:43;;;;;;;0.10;0.10;;;;;;;;;;4941456;28;20086;-79
2023/05/14 14:11:28;;;;;;;0.10;0.10;;;;;;;;;;4940423;28;20039;-79
2023/05/14 14:14:14;;;;;;;0.20;0.20;;;;;;;;;;4926803;28;20047;-80
2023/05/14 14:17:00;;;;;;;0.20;0.20;;;;;;;;;;4941838;28;20089;-80
2023/05/14 14:19:46;;;;;;;0.10;0.10;;;;;;;;;;4940407;28;20043;-79
2023/05/14 14:22:34;;;;;;;0.10;0.10;;;;;;;;;;4940611;28;20047;-80
2023/05/14 14:25:20;;;;;;;0.00;0.00;;;;;;;;;;4941677;28;20047;-79
2023/05/14 14:28:06;;;;;;;0.00;0.00;;;;;;;;;;4945532;28;20074;-79
2023/05/14 14:30:51;;;;;;;0.00;0.00;;;;;;;;;;4959095;28;20043;-80
2023/05/14 14:33:37;;;;;;;0.00;0.00;;;;;;;;;;4958947;28;20035;-79
2023/05/14 14:36:23;;;;;;;0.00;0.00;;;;;;;;;;4962283;28;20042;-78
2023/05/14 14:39:08;;;;;;;0.10;0.10;;;;;;;;;;4960254;28;20046;-79
2023/05/14 14:41:54;;;;;;;0.00;0.00;;;;;;;;;;4960056;28;20034;-79
2023/05/14 14:44:40;;;;;;;0.00;0.00;;;;;;;;;;4959850;28;20122;-79
2023/05/14 14:47:26;;;;;;;0.00;0.00;;;;;;;;;;4946018;28;20391;-78
2023/05/14 14:50:12;;;;;;;0.10;0.10;;;;;;;;;;4959513;28;21051;-79
2023/05/14 14:52:58;;;;;;;0.10;0.10;;;;;;;;;;4959811;28;20503;-78
2023/05/14 14:55:43;;;;;;;0.00;0.00;;;;;;;;;;4960246;28;20046;-78
2023/05/14 14:58:30;;;;;;;0.10;0.10;;;;;;;;;;4958473;28;20113;-79
2023/05/14 15:01:15;;;;;;;0.10;0.10;;;;;;;;;;4959826;28;20450;-78
2023/05/14 15:04:01;;;;;;;0.10;0.10;;;;;;;;;;4960474;28;20041;-78
2023/05/14 15:06:47;;;;;;;0.10;0.10;;;;;;;;;;4959083;28;20193;-78
2023/05/14 15:09:32;;;;;;;0.20;0.20;;;;;;;;;;4958298;28;20026;-78
2023/05/14 15:12:18;;;;;;;0.10;0.10;;;;;;;;;;4958832;28;20058;-78
2023/05/14 15:15:04;;;;;;;0.10;0.10;;;;;;;;;;4959784;28;20046;-78
2023/05/14 15:17:50;;;;;;;0.10;0.10;;;;;;;;;;4959116;28;20484;-78
2023/05/14 15:20:36;;;;;;;0.00;0.00;;;;;;;;;;4959531;28;20081;-78
2023/05/14 15:23:22;;;;;;;0.10;0.10;;;;;;;;;;4957348;28;20034;-78
2023/05/14 15:26:07;;;;;;;0.03;0.03;;;;;;;;;;4957877;28;20039;-79
2023/05/14 15:28:53;;;;;;;0.10;0.10;;;;;;;;;;4956369;28;20450;-78
2023/05/14 15:31:40;;;;;;;0.10;0.10;;;;;;;;;;4957028;28;20058;-78
2023/05/14 15:34:25;;;;;;;0.10;0.10;;;;;;;;;;4959807;28;20046;-78
2023/05/14 15:37:11;;;;;;;0.10;0.10;;;;;;;;;;4944721;28;20558;-78
2023/05/14 15:39:57;;;;;;;0.10;0.10;;;;;;;;;;4958182;28;20045;-78
2023/05/14 15:42:42;;;;;;;0.10;0.10;;;;;;;;;;4957361;28;20113;-78
2023/05/14 15:45:28;;;;;;;0.00;0.00;;;;;;;;;;4943907;28;20051;-78
2023/05/14 15:48:16;;;;;;;0.10;0.10;;;;;;;;;;4957826;28;20045;-77
2023/05/14 15:51:02;;;;;;;0.10;0.10;;;;;;;;;;4958163;28;20073;-78
2023/05/14 15:53:47;;;;;;;0.08;0.08;;;;;;;;;;4957289;28;20045;-77
2023/05/14 15:56:33;;;;;;;0.00;0.00;;;;;;;;;;4958164;28;20364;-77
2023/05/14 15:59:23;;;;;;;0.13;0.13;;;;;;;;;;4942586;28;20117;-77
2023/05/14 16:02:09;;;;;;;0.10;0.10;;;;;;;;;;4941721;28;20690;-77
2023/05/14 16:04:56;;;;;;;0.10;0.10;;;;;;;;;;4957087;28;20168;-77
2023/05/14 16:07:41;;;;;;;0.03;0.03;;;;;;;;;;4957071;28;20043;-77
2023/05/14 16:10:27;;;;;;;0.10;0.10;;;;;;;;;;4959190;28;20146;-77
2023/05/14 16:13:13;;;;;;;0.10;0.10;;;;;;;;;;4958895;28;20492;-77
2023/05/14 16:15:58;;;;;;;0.08;0.08;;;;;;;;;;4958438;28;20089;-77
2023/05/14 16:18:44;;;;;;;0.10;0.10;;;;;;;;;;4957540;28;20031;-77
2023/05/14 16:21:30;;;;;;;0.10;0.10;;;;;;;;;;4956864;28;20035;-76
2023/05/14 16:24:16;;;;;;;0.10;0.10;;;;;;;;;;4930235;28;20116;-77
2023/05/14 16:27:02;;;;;;;0.10;0.10;;;;;;;;;;4955830;28;20451;-77
2023/05/14 16:29:48;;;;;;;0.10;0.10;;;;;;;;;;4955880;28;20683;-77
2023/05/14 16:32:34;;;;;;;0.10;0.10;;;;;;;;;;4958880;28;20043;-77
2023/05/14 16:35:19;;;;;;;0.10;0.10;;;;;;;;;;4958539;28;20038;-77
2023/05/14 16:38:05;;;;;;;0.10;0.10;;;;;;;;;;4956544;28;20046;-77